Time;durP1;ratioP1;P1;durP2;ratioP2;P2;SDS_P1;SDS_P2;PMS_P1;PMS_P2;Temp;Humidity;BMP_temperature;BMP_pressure;BME280_temperature;BME280_humidity;BME280_pressure;Samples;Min_cycle;Max_cycle;Signal;HPM_P1;HPM_P2
2023/05/11 00:01:51;;;;;;;0.40;0.40;;;11.10;99.90;;;10.73;100.00;97055.28;4887616;29;20743;-36
2023/05/11 00:04:17;;;;;;;0.82;0.60;;;11.10;99.90;;;10.73;100.00;97054.41;4886579;29;20044;-36
2023/05/11 00:06:42;;;;;;;0.80;0.70;;;11.10;99.90;;;10.71;100.00;97051.84;4880298;29;20481;-36
2023/05/11 00:09:09;;;;;;;0.73;0.50;;;11.10;99.90;;;10.70;100.00;97051.00;4889793;29;20040;-36
2023/05/11 00:11:35;;;;;;;0.98;0.52;;;11.10;99.90;;;10.71;100.00;97046.56;4887633;29;20041;-36
2023/05/11 00:14:01;;;;;;;2.38;0.50;;;11.10;99.90;;;10.71;100.00;97043.91;4886559;29;20024;-35
2023/05/11 00:16:27;;;;;;;0.30;0.30;;;11.10;99.90;;;10.71;100.00;97033.38;4886636;29;20040;-36
2023/05/11 00:18:53;;;;;;;0.60;0.40;;;11.10;99.90;;;10.72;100.00;97042.16;4887461;29;20085;-36
2023/05/11 00:21:19;;;;;;;0.75;0.55;;;11.10;99.90;;;10.68;100.00;97034.38;4887468;29;20053;-36
2023/05/11 00:23:45;;;;;;;1.45;0.60;;;11.10;99.90;;;10.65;100.00;97036.28;4891984;29;20036;-36
2023/05/11 00:26:10;;;;;;;1.30;0.70;;;11.10;99.90;;;10.70;100.00;97045.72;4893868;29;20032;-36
2023/05/11 00:28:36;;;;;;;0.50;0.50;;;11.10;99.90;;;10.72;100.00;97036.88;4886520;29;20033;-36
2023/05/11 00:31:04;;;;;;;0.73;0.60;;;11.10;99.90;;;10.72;100.00;97039.53;4888179;29;20041;-36
2023/05/11 00:33:30;;;;;;;0.85;0.47;;;11.20;99.90;;;10.70;100.00;97035.16;4887509;29;20029;-36
2023/05/11 00:35:56;;;;;;;1.52;0.60;;;11.20;99.90;;;10.68;100.00;97031.75;4882939;29;20041;-36
2023/05/11 00:38:22;;;;;;;0.32;0.32;;;11.10;99.90;;;10.71;100.00;97038.66;4881120;29;20035;-36
2023/05/11 00:40:48;;;;;;;1.52;0.60;;;11.10;99.90;;;10.68;100.00;97036.16;4887510;29;20048;-36
2023/05/11 00:43:14;;;;;;;1.00;0.60;;;11.10;99.90;;;10.68;100.00;97036.16;4883687;29;20045;-35
2023/05/11 00:45:40;;;;;;;0.60;0.50;;;11.10;99.90;;;10.66;100.00;97038.88;4883168;29;20086;-35
2023/05/11 00:48:06;;;;;;;1.35;0.65;;;11.10;99.90;;;10.64;100.00;97034.56;4882253;29;20033;-36
2023/05/11 00:50:32;;;;;;;1.08;0.60;;;11.10;99.90;;;10.63;100.00;97038.13;4882897;29;20031;-36
2023/05/11 00:52:58;;;;;;;1.27;0.65;;;11.10;99.90;;;10.64;100.00;97042.47;4877780;29;20150;-36
2023/05/11 00:55:26;;;;;;;1.23;0.55;;;11.00;99.90;;;10.64;100.00;97037.19;4864407;29;20039;-36
2023/05/11 00:57:52;;;;;;;2.20;0.63;;;11.10;99.90;;;10.65;100.00;97044.19;4882477;29;20386;-36
2023/05/11 01:00:18;;;;;;;3.78;0.60;;;11.10;99.90;;;10.65;100.00;97037.13;4887755;29;20098;-36
2023/05/11 01:02:44;;;;;;;1.85;0.70;;;11.10;99.90;;;10.67;100.00;97034.44;4866647;29;20059;-36
2023/05/11 01:05:10;;;;;;;1.77;0.55;;;11.10;99.90;;;10.67;100.00;97031.81;4867686;29;20048;-35
2023/05/11 01:07:48;;;;;;;1.10;0.60;;;11.10;99.90;;;10.70;100.00;97034.31;4871600;29;20039;-36
2023/05/11 01:10:41;;;;;;;4.35;0.80;;;11.10;99.90;;;10.61;100.00;97013.63;4868825;29;20033;-36
2023/05/11 01:13:26;;;;;;;;;;;11.10;99.90;;;10.71;100.00;97033.38;4882610;29;20028;-36
2023/05/11 01:15:57;;;;;;;1.27;0.57;;;11.10;99.90;;;10.74;100.00;97038.53;4878944;29;20067;-36
2023/05/11 01:18:30;;;;;;;1.75;0.50;;;11.20;99.90;;;10.74;100.00;97040.31;4874333;29;20036;-36
2023/05/11 01:20:59;;;;;;;2.45;1.30;;;11.10;99.90;;;10.73;100.00;97034.19;4867403;29;20036;-36
2023/05/11 01:23:59;;;;;;;2.95;0.60;;;11.20;99.90;;;10.76;100.00;97041.94;4881876;29;20469;-36
2023/05/11 01:26:45;;;;;;;0.82;0.68;;;11.20;99.90;;;10.77;100.00;97034.91;4887053;29;20389;-36
2023/05/11 01:29:38;;;;;;;1.05;0.50;;;11.20;99.90;;;10.77;100.00;97033.13;4865949;29;20472;-36
2023/05/11 01:32:28;;;;;;;3.00;0.60;;;11.20;99.90;;;10.77;100.00;97027.84;4884129;29;20052;-36
2023/05/11 01:35:23;;;;;;;0.70;0.60;;;11.20;99.90;;;10.77;100.00;97025.22;4866235;29;20054;-36
2023/05/11 01:37:53;;;;;;;1.95;0.50;;;11.20;99.90;;;10.77;100.00;97033.13;4869598;29;20560;-36
2023/05/11 01:40:31;;;;;;;1.40;0.50;;;11.20;99.90;;;10.78;100.00;97026.91;4869023;29;20041;-36
2023/05/11 01:43:07;;;;;;;1.38;0.50;;;11.20;99.90;;;10.74;100.00;97030.63;4882756;29;20029;-36
2023/05/11 01:45:39;;;;;;;3.15;1.83;;;11.20;99.90;;;10.73;100.00;97026.28;4870760;29;20047;-36
2023/05/11 01:48:11;;;;;;;2.35;0.47;;;11.20;99.90;;;10.68;100.00;97031.75;4860175;29;20569;-36
2023/05/11 01:50:38;;;;;;;0.57;0.50;;;11.10;99.90;;;10.64;100.00;97030.16;4883822;29;20033;-36
2023/05/11 01:53:06;;;;;;;2.38;0.40;;;11.10;99.90;;;10.62;100.00;97026.75;4886606;29;20041;-36
2023/05/11 01:55:37;;;;;;;1.88;0.57;;;11.10;99.90;;;10.59;100.00;97021.59;4865022;29;20052;-36
2023/05/11 01:58:05;;;;;;;0.80;0.45;;;11.10;99.90;;;10.63;100.00;97028.44;4870537;29;20037;-36
2023/05/11 02:00:32;;;;;;;1.02;0.47;;;11.10;99.90;;;10.62;100.00;97026.75;4858592;29;20531;-36
2023/05/11 02:03:00;;;;;;;0.57;0.40;;;11.10;99.90;;;10.63;100.00;97031.06;4884529;29;20509;-36
2023/05/11 02:05:28;;;;;;;0.68;0.50;;;11.00;99.90;;;10.61;100.00;97021.53;4882800;29;20079;-36
2023/05/11 02:07:56;;;;;;;0.85;0.57;;;11.10;99.90;;;10.66;100.00;97024.84;4856543;29;20038;-36
2023/05/11 02:10:25;;;;;;;0.47;0.30;;;11.10;99.90;;;10.66;100.00;97028.31;4862607;29;20032;-36
2023/05/11 02:12:53;;;;;;;0.80;0.47;;;11.10;99.90;;;10.66;100.00;97028.31;4865785;29;20485;-36
2023/05/11 02:15:24;;;;;;;0.50;0.40;;;11.10;99.90;;;10.68;100.00;97026.47;4862943;29;20974;-35
2023/05/11 02:17:52;;;;;;;1.00;0.60;;;11.10;99.90;;;10.65;100.00;97031.88;4862949;29;20038;-36
2023/05/11 02:20:19;;;;;;;0.50;0.50;;;11.10;99.90;;;10.67;100.00;97034.44;4882743;29;20119;-36
2023/05/11 02:22:46;;;;;;;0.45;0.40;;;11.10;99.90;;;10.70;100.00;97039.59;4882525;29;20100;-36
2023/05/11 02:25:12;;;;;;;0.73;0.50;;;11.10;99.90;;;10.71;100.00;97041.28;4865085;29;20064;-36
2023/05/11 02:27:38;;;;;;;0.60;0.30;;;11.10;99.90;;;10.71;100.00;97036.00;4886538;29;20056;-36
2023/05/11 02:30:07;;;;;;;1.17;0.40;;;11.10;99.90;;;10.71;100.00;97038.66;4864606;29;20038;-36
2023/05/11 02:32:38;;;;;;;0.80;0.50;;;11.20;99.90;;;10.67;100.00;97030.00;4852071;29;20124;-35
2023/05/11 02:35:13;;;;;;;1.95;0.50;;;11.10;99.90;;;10.72;100.00;97039.53;4866834;29;20036;-36
2023/05/11 02:37:44;;;;;;;1.17;0.43;;;11.10;99.90;;;10.72;100.00;97032.47;4866480;29;20100;-36
2023/05/11 02:40:18;;;;;;;0.60;0.55;;;11.10;99.90;;;10.73;100.00;97038.59;4879226;29;20033;-36
2023/05/11 02:42:48;;;;;;;0.55;0.50;;;11.10;99.90;;;10.74;100.00;97027.97;4866442;29;20044;-36
2023/05/11 02:45:16;;;;;;;3.25;0.50;;;11.10;99.90;;;10.76;100.00;97033.19;4868750;29;20544;-36
2023/05/11 02:47:47;;;;;;;1.70;0.50;;;11.10;99.90;;;10.73;100.00;97028.03;4862485;29;20491;-36
2023/05/11 02:50:14;;;;;;;1.10;0.40;;;11.10;99.90;;;10.76;100.00;97035.81;4869613;29;20040;-35
2023/05/11 02:52:44;;;;;;;0.73;0.50;;;11.10;99.90;;;10.77;100.00;97037.56;4866503;29;20092;-36
2023/05/11 02:55:12;;;;;;;2.17;0.40;;;11.20;99.90;;;10.76;100.00;97034.03;4882389;29;20032;-36
2023/05/11 02:57:38;;;;;;;0.65;0.63;;;11.10;99.90;;;10.74;100.00;97030.63;4860997;29;20088;-36
2023/05/11 03:00:05;;;;;;;0.60;0.32;;;11.10;99.90;;;10.76;100.00;97028.75;4859017;29;20033;-36
2023/05/11 03:02:30;;;;;;;0.40;0.40;;;11.20;99.90;;;10.76;100.00;97035.81;4884827;29;20135;-36
2023/05/11 03:04:56;;;;;;;0.88;0.40;;;11.10;99.90;;;10.76;100.00;97027.91;4882955;29;20652;-36
2023/05/11 03:07:22;;;;;;;0.80;0.57;;;11.20;99.90;;;10.76;100.00;97022.63;4881696;29;20071;-36
2023/05/11 03:09:48;;;;;;;0.45;0.45;;;11.10;99.90;;;10.74;100.00;97030.63;4867312;29;20557;-36
2023/05/11 03:12:14;;;;;;;4.32;0.50;;;11.10;99.90;;;10.74;100.00;97024.50;4869137;29;20047;-35
2023/05/11 03:14:41;;;;;;;0.50;0.40;;;11.10;99.90;;;10.68;100.00;97015.06;4880337;29;20100;-36
2023/05/11 03:17:08;;;;;;;1.65;0.32;;;11.10;99.90;;;10.73;100.00;97018.38;4886520;29;20032;-36
2023/05/11 03:19:35;;;;;;;0.60;0.60;;;11.10;99.90;;;10.72;100.00;97024.56;4888950;29;20035;-36
2023/05/11 03:22:02;;;;;;;1.48;0.45;;;11.10;99.90;;;10.72;100.00;97029.81;4884201;29;20027;-36
2023/05/11 03:24:29;;;;;;;1.27;0.60;;;11.10;99.90;;;10.72;100.00;97023.69;4888308;29;20036;-35
2023/05/11 03:26:56;;;;;;;2.10;0.68;;;11.10;99.90;;;10.73;100.00;97018.38;4866218;29;20516;-36
2023/05/11 03:29:24;;;;;;;1.42;0.77;;;11.10;99.90;;;10.71;100.00;97020.19;4883611;29;20284;-36
2023/05/11 03:31:50;;;;;;;0.65;0.50;;;11.10;99.90;;;10.70;100.00;97018.50;4865084;29;20032;-36
2023/05/11 03:34:16;;;;;;;0.82;0.50;;;11.10;99.90;;;10.69;100.00;97022.03;4887063;29;20035;-36
2023/05/11 03:36:44;;;;;;;0.60;0.60;;;11.10;99.90;;;10.70;100.00;97010.59;4887179;29;20084;-36
2023/05/11 03:39:11;;;;;;;1.42;0.80;;;11.10;99.90;;;10.69;100.00;97016.75;4872107;29;20066;-36
2023/05/11 03:41:38;;;;;;;1.52;0.60;;;11.10;99.90;;;10.66;100.00;97012.50;4859865;29;20334;-36
2023/05/11 03:44:07;;;;;;;0.50;0.50;;;11.10;99.90;;;10.61;100.00;97009.19;4866544;29;20041;-36
2023/05/11 03:46:37;;;;;;;1.75;0.57;;;11.10;99.90;;;10.64;100.00;97022.25;4874907;29;20396;-36
2023/05/11 03:49:04;;;;;;;3.47;0.80;;;11.10;99.90;;;10.63;100.00;97014.41;4863363;29;20051;-36
2023/05/11 03:51:31;;;;;;;2.67;0.50;;;11.10;99.90;;;10.59;100.00;97005.78;4872527;29;20185;-36
2023/05/11 03:53:57;;;;;;;2.10;0.70;;;11.10;99.90;;;10.59;100.00;97015.47;4868992;29;20033;-35
2023/05/11 03:56:23;;;;;;;0.90;0.63;;;11.00;99.90;;;10.55;100.00;97008.59;4865340;29;20052;-36
2023/05/11 03:58:49;;;;;;;0.75;0.43;;;11.00;99.90;;;10.52;100.00;97008.75;4857984;29;21739;-36
2023/05/11 04:01:15;;;;;;;0.77;0.60;;;11.00;99.90;;;10.49;100.00;97005.28;4882566;29;20525;-36
2023/05/11 04:03:49;;;;;;;1.27;0.70;;;11.00;99.90;;;10.47;100.00;97003.66;4871345;29;20043;-36
2023/05/11 04:06:16;;;;;;;2.35;0.73;;;10.90;99.90;;;10.46;100.00;97008.09;4883658;29;20036;-36
2023/05/11 04:08:42;;;;;;;1.65;0.70;;;10.90;99.90;;;10.43;100.00;97000.28;4868773;29;20033;-36
2023/05/11 04:11:08;;;;;;;3.90;0.55;;;10.90;99.90;;;10.43;100.00;97002.09;4885217;29;20036;-36
2023/05/11 04:13:33;;;;;;;1.55;0.80;;;10.90;99.90;;;10.40;100.00;96997.78;4879639;29;20587;-36
2023/05/11 04:15:59;;;;;;;0.85;0.60;;;10.90;99.90;;;10.41;100.00;97001.25;4872020;29;20028;-36
2023/05/11 04:18:25;;;;;;;7.55;0.70;;;10.90;99.90;;;10.39;100.00;96995.22;4880022;29;20033;-36
2023/05/11 04:20:51;;;;;;;3.25;0.80;;;10.90;99.90;;;10.39;100.00;97000.47;4876813;29;20047;-36
2023/05/11 04:23:16;;;;;;;1.27;0.85;;;10.80;99.90;;;10.38;100.00;96999.63;4883768;29;20036;-36
2023/05/11 04:25:42;;;;;;;1.25;0.70;;;10.80;99.90;;;10.39;100.00;97001.38;4881330;29;20379;-36
2023/05/11 04:28:08;;;;;;;2.95;0.70;;;10.80;99.90;;;10.40;100.00;97002.22;4882537;29;20051;-36
2023/05/11 04:30:33;;;;;;;1.20;0.60;;;10.90;99.90;;;10.41;100.00;97003.91;4880286;29;20669;-36
2023/05/11 04:32:59;;;;;;;0.85;0.70;;;10.90;99.90;;;10.40;100.00;97004.84;4876920;29;20481;-36
2023/05/11 04:35:25;;;;;;;0.80;0.68;;;10.90;99.90;;;10.34;100.00;96990.16;4874093;29;20032;-36
2023/05/11 04:37:50;;;;;;;0.75;0.68;;;10.80;99.90;;;10.44;100.00;97007.25;4873677;29;20032;-36
2023/05/11 04:40:16;;;;;;;1.98;0.80;;;10.90;99.90;;;10.45;100.00;97014.25;4871248;29;20067;-36
2023/05/11 04:42:42;;;;;;;1.27;0.70;;;10.90;99.90;;;10.48;100.00;97008.88;4878794;29;20052;-36
2023/05/11 04:45:08;;;;;;;1.08;0.80;;;10.90;99.90;;;10.50;100.00;97009.66;4876491;29;20076;-36
2023/05/11 04:47:34;;;;;;;1.85;0.73;;;10.90;99.90;;;10.52;100.00;97006.09;4887909;29;20466;-36
2023/05/11 04:49:59;;;;;;;0.75;0.70;;;11.00;99.90;;;10.57;100.00;97009.38;4884185;29;20115;-37
2023/05/11 04:52:25;;;;;;;1.35;1.00;;;11.00;99.90;;;10.60;100.00;97011.88;4885461;29;20397;-36
2023/05/11 04:54:51;;;;;;;0.85;0.70;;;11.00;99.90;;;10.60;100.00;97006.63;4882375;29;20193;-37
2023/05/11 04:57:17;;;;;;;0.98;0.88;;;11.00;99.90;;;10.60;100.00;97012.75;4884461;29;20874;-36
2023/05/11 04:59:44;;;;;;;4.93;0.88;;;11.10;99.90;;;10.62;100.00;97015.31;4879903;29;20044;-36
2023/05/11 05:02:09;;;;;;;2.55;0.80;;;11.10;99.90;;;10.64;100.00;97018.75;4881481;29;20075;-36
2023/05/11 05:04:35;;;;;;;1.75;0.88;;;11.10;99.90;;;10.68;100.00;97015.91;4888900;29;20032;-36
2023/05/11 05:07:01;;;;;;;1.55;0.80;;;11.10;99.90;;;10.68;100.00;97012.44;4887300;29;20120;-36
2023/05/11 05:09:26;;;;;;;1.08;0.90;;;11.10;99.90;;;10.70;100.00;97014.06;4885670;29;20032;-36
2023/05/11 05:11:52;;;;;;;4.72;1.20;;;11.10;99.90;;;10.73;100.00;97021.00;4873978;29;20036;-36
2023/05/11 05:14:17;;;;;;;4.07;1.63;;;11.20;99.90;;;10.81;100.00;97013.59;4883407;29;20068;-36
2023/05/11 05:16:43;;;;;;;3.80;1.30;;;11.20;99.90;;;10.83;100.00;97014.38;4874878;29;20040;-36
2023/05/11 05:19:09;;;;;;;1.00;0.80;;;11.30;99.90;;;10.87;100.00;97015.97;4877932;29;20044;-36
2023/05/11 05:21:35;;;;;;;1.90;1.10;;;11.30;99.90;;;10.92;100.00;97018.41;4874013;29;20063;-36
2023/05/11 05:24:05;;;;;;;1.27;0.93;;;11.30;99.90;;;10.93;100.00;97014.84;4880181;29;20509;-36
2023/05/11 05:26:31;;;;;;;1.88;0.98;;;11.40;99.90;;;10.98;100.00;97017.25;4883285;29;20042;-36
2023/05/11 05:28:57;;;;;;;1.70;1.08;;;11.40;99.90;;;11.04;100.00;97022.28;4870131;29;20056;-36
2023/05/11 05:31:23;;;;;;;0.85;0.80;;;11.40;99.90;;;11.04;100.00;97027.56;4886767;29;20501;-36
2023/05/11 05:33:49;;;;;;;1.58;0.82;;;11.40;99.90;;;11.10;100.00;97029.06;4883207;29;20037;-36
2023/05/11 05:36:15;;;;;;;1.42;1.00;;;11.50;99.90;;;11.12;100.00;97021.94;4893491;29;20364;-37
2023/05/11 05:38:40;;;;;;;1.95;0.90;;;11.50;99.90;;;11.16;100.00;97016.47;4883385;29;20104;-37
2023/05/11 05:41:06;;;;;;;4.78;0.90;;;11.60;99.90;;;11.24;100.00;97030.16;4889469;29;20047;-37
2023/05/11 05:43:32;;;;;;;5.22;0.88;;;11.60;99.90;;;11.27;100.00;97027.38;4891164;29;20033;-36
2023/05/11 05:45:57;;;;;;;2.33;0.75;;;11.70;99.90;;;11.28;100.00;97021.16;4884703;29;20386;-36
2023/05/11 05:48:23;;;;;;;7.13;2.70;;;11.70;99.90;;;11.40;100.00;97029.44;4882000;29;20205;-36
2023/05/11 05:50:49;;;;;;;4.68;1.48;;;11.80;99.90;;;11.45;100.00;97023.03;4887500;29;20144;-36
2023/05/11 05:53:15;;;;;;;2.20;1.10;;;11.90;99.90;;;11.49;100.00;97026.38;4880818;29;20458;-36
2023/05/11 05:55:40;;;;;;;1.00;0.70;;;11.90;99.90;;;11.56;100.00;97034.88;4883896;29;20520;-37
2023/05/11 05:58:06;;;;;;;2.50;1.30;;;12.00;99.90;;;11.54;100.00;97032.31;4892731;29;20037;-36
2023/05/11 06:00:33;;;;;;;5.32;1.05;;;12.00;99.90;;;11.63;100.00;97031.88;4889221;29;20048;-36
2023/05/11 06:02:59;;;;;;;1.98;1.10;;;12.00;99.90;;;11.61;100.00;97031.09;4875750;29;20041;-36
2023/05/11 06:05:25;;;;;;;0.93;0.80;;;12.10;99.90;;;11.68;100.00;97033.44;4894745;29;20052;-36
2023/05/11 06:07:50;;;;;;;11.50;4.07;;;12.10;99.90;;;11.72;100.00;97035.00;4888763;29;20036;-36
2023/05/11 06:10:16;;;;;;;3.88;2.10;;;12.10;99.90;;;11.74;100.00;97027.88;4897342;29;20031;-36
2023/05/11 06:12:42;;;;;;;1.77;0.70;;;12.20;99.90;;;11.79;100.00;97037.28;4889448;29;20036;-36
2023/05/11 06:15:08;;;;;;;2.65;1.02;;;12.20;99.90;;;11.83;100.00;97043.28;4895703;29;20036;-36
2023/05/11 06:17:42;;;;;;;1.20;1.00;;;12.20;99.90;;;11.82;100.00;97031.84;5071994;27;20420;-36
2023/05/11 06:20:08;;;;;;;2.28;0.90;;;12.30;99.90;;;11.92;100.00;97042.88;5044666;28;20621;-35
2023/05/11 06:22:34;;;;;;;0.80;0.60;;;12.30;99.90;;;11.94;100.00;97040.16;5043238;28;20087;-35
2023/05/11 06:25:00;;;;;;;3.08;1.10;;;12.30;99.90;;;11.97;100.00;97043.50;5039174;28;20036;-35
2023/05/11 06:27:26;;;;;;;1.30;0.80;;;12.40;99.90;;;12.01;100.00;97039.78;5047427;28;20052;-35
2023/05/11 06:29:51;;;;;;;2.25;0.98;;;12.40;99.90;;;12.02;100.00;97051.19;5037285;28;20040;-35
2023/05/11 06:32:17;;;;;;;1.83;0.80;;;12.40;99.90;;;11.99;100.00;97048.72;5043228;28;20026;-35
2023/05/11 06:34:43;;;;;;;2.05;1.00;;;12.40;99.90;;;11.99;100.00;97046.94;5038480;28;20082;-35
2023/05/11 06:37:08;;;;;;;1.08;0.80;;;12.40;99.90;;;11.97;100.00;97042.63;5043719;28;20025;-35
2023/05/11 06:39:36;;;;;;;3.20;1.00;;;12.40;99.90;;;11.92;100.00;97042.88;5038458;28;20028;-36
2023/05/11 06:42:03;;;;;;;0.95;0.80;;;12.30;99.90;;;11.91;100.00;97046.44;5040156;28;20021;-36
2023/05/11 06:44:29;;;;;;;1.65;0.82;;;12.30;99.90;;;11.93;100.00;97044.56;5040986;28;20025;-36
2023/05/11 06:46:55;;;;;;;0.80;0.80;;;12.30;99.90;;;11.93;100.00;97055.13;5040179;28;20043;-36
2023/05/11 06:49:20;;;;;;;1.13;0.80;;;12.30;99.90;;;11.92;100.00;97049.94;5041337;28;20032;-36
2023/05/11 06:51:46;;;;;;;1.70;0.90;;;12.30;99.90;;;11.93;100.00;97049.00;5041731;28;20045;-36
2023/05/11 06:54:12;;;;;;;1.38;0.93;;;12.30;99.90;;;11.91;100.00;97041.16;5038111;28;20056;-36
2023/05/11 06:56:37;;;;;;;0.70;0.70;;;12.30;99.90;;;11.93;100.00;97047.22;5035447;28;20446;-36
2023/05/11 06:59:04;;;;;;;1.08;0.80;;;12.30;99.90;;;11.94;100.00;97038.38;5041256;28;20101;-36
2023/05/11 07:01:30;;;;;;;1.67;0.80;;;12.40;99.90;;;11.94;100.00;97041.00;5039467;28;20028;-36
2023/05/11 07:03:56;;;;;;;1.67;0.90;;;12.30;99.90;;;11.97;100.00;97042.63;5036020;28;20052;-36
2023/05/11 07:06:21;;;;;;;1.10;0.90;;;12.40;99.90;;;11.98;100.00;97031.16;5037946;28;20500;-35
2023/05/11 07:08:47;;;;;;;2.13;0.90;;;12.40;99.90;;;12.00;100.00;97046.00;5035454;28;20548;-35
2023/05/11 07:11:14;;;;;;;2.25;1.00;;;12.40;99.90;;;12.06;100.00;97047.50;5039792;28;20040;-36
2023/05/11 07:13:40;;;;;;;1.95;0.90;;;12.40;99.90;;;12.08;100.00;97050.03;5038195;28;20274;-35
2023/05/11 07:16:05;;;;;;;1.63;1.00;;;12.40;99.90;;;12.15;100.00;97048.81;5040486;28;20487;-35
2023/05/11 07:18:31;;;;;;;0.90;0.80;;;12.50;99.90;;;12.19;100.00;97047.75;5037466;28;20055;-35
2023/05/11 07:20:57;;;;;;;2.45;0.85;;;12.50;99.90;;;12.25;100.00;97050.09;5036998;28;20485;-36
2023/05/11 07:23:22;;;;;;;1.38;0.70;;;12.60;99.90;;;12.28;100.00;97057.88;5040391;28;20029;-36
2023/05/11 07:25:48;;;;;;;3.42;0.90;;;12.70;99.90;;;12.30;100.00;97050.72;5040561;28;20424;-35
2023/05/11 07:28:14;;;;;;;1.92;1.05;;;12.70;99.90;;;12.32;100.00;97054.13;5029561;28;20033;-36
2023/05/11 07:30:40;;;;;;;4.07;1.20;;;12.70;99.90;;;12.34;100.00;97056.72;5023335;28;20037;-36
2023/05/11 07:33:05;;;;;;;3.08;1.65;;;12.70;99.90;;;12.41;100.00;97060.75;5023411;28;20485;-36
2023/05/11 07:35:31;;;;;;;1.38;1.23;;;12.80;99.90;;;12.49;100.00;97052.44;5023654;28;20040;-36
2023/05/11 07:37:57;;;;;;;2.90;0.90;;;12.90;99.90;;;12.57;100.00;97056.41;5025691;28;20041;-36
2023/05/11 07:40:22;;;;;;;1.95;1.10;;;12.90;99.90;;;12.65;100.00;97056.06;5026527;28;20120;-36
2023/05/11 07:42:48;;;;;;;2.65;1.00;;;13.00;99.90;;;12.72;100.00;97060.09;5023802;28;20112;-36
2023/05/11 07:45:14;;;;;;;1.40;1.00;;;13.10;99.90;;;12.82;100.00;97049.88;5023841;28;20028;-36
2023/05/11 07:47:40;;;;;;;1.80;1.20;;;13.20;99.90;;;12.89;100.00;97055.72;5024585;28;20366;-36
2023/05/11 07:50:06;;;;;;;2.88;1.20;;;13.30;99.90;;;12.94;100.00;97053.69;5021449;28;20071;-36
2023/05/11 07:52:32;;;;;;;1.55;1.00;;;13.30;99.90;;;12.96;100.00;97059.75;5022777;28;20037;-36
2023/05/11 07:54:58;;;;;;;2.67;1.48;;;13.30;99.90;;;12.95;100.00;97066.81;5019439;28;20030;-36
2023/05/11 07:57:23;;;;;;;1.83;0.90;;;13.40;99.90;;;13.02;100.00;97064.72;5024526;28;20091;-36
2023/05/11 07:59:50;;;;;;;2.83;1.20;;;13.40;99.90;;;12.93;100.00;97059.91;5023014;28;20552;-36
2023/05/11 08:02:15;;;;;;;1.02;0.80;;;13.40;99.90;;;12.90;100.00;97063.59;5024748;28;20630;-36
2023/05/11 08:04:42;;;;;;;1.75;1.10;;;13.30;99.90;;;12.98;100.00;97055.25;5024794;28;20037;-36
2023/05/11 08:07:07;;;;;;;2.60;1.20;;;13.40;99.90;;;13.04;100.00;97057.56;5024437;28;20029;-36
2023/05/11 08:09:33;;;;;;;4.40;1.38;;;13.40;99.90;;;13.01;100.00;97047.16;5027622;28;20033;-36
2023/05/11 08:12:00;;;;;;;1.88;0.93;;;13.50;99.90;;;13.10;100.00;97056.38;5025811;28;20496;-36
2023/05/11 08:14:26;;;;;;;2.80;0.88;;;13.50;99.90;;;13.13;100.00;97057.06;5027409;28;20660;-35
2023/05/11 08:16:52;;;;;;;2.03;0.98;;;13.50;99.90;;;13.24;100.00;97058.31;5024874;28;20032;-36
2023/05/11 08:19:17;;;;;;;1.25;0.90;;;13.60;99.90;;;13.31;100.00;97059.72;5023366;28;20032;-36
2023/05/11 08:21:45;;;;;;;5.05;1.10;;;13.70;99.90;;;13.23;100.00;97035.41;5025810;28;20038;-36
2023/05/11 08:24:11;;;;;;;2.67;1.48;;;13.90;99.90;;;13.50;100.00;97063.09;5019569;28;20040;-36
2023/05/11 08:26:37;;;;;;;1.85;1.15;;;14.00;99.90;;;13.54;100.00;97064.63;5021797;28;20033;-36
2023/05/11 08:29:03;;;;;;;1.50;0.90;;;13.90;99.90;;;13.56;100.00;97064.53;5025808;28;21563;-36
2023/05/11 08:31:29;;;;;;;1.50;1.08;;;13.90;99.90;;;13.52;100.00;97055.91;5027526;28;20817;-36
2023/05/11 08:33:55;;;;;;;1.63;1.02;;;13.90;99.90;;;13.47;100.00;97055.31;5016486;28;20037;-36
2023/05/11 08:36:21;;;;;;;1.45;1.30;;;13.90;99.90;;;13.38;100.00;97055.81;5024773;28;20680;-36
2023/05/11 08:38:46;;;;;;;2.40;1.48;;;13.80;99.90;;;13.28;100.00;97051.91;5021318;28;20033;-36
2023/05/11 08:41:12;;;;;;;3.50;1.23;;;13.70;99.90;;;13.21;100.00;97053.16;5020239;28;20031;-36
2023/05/11 08:43:39;;;;;;;2.28;1.30;;;13.70;99.90;;;13.23;100.00;97049.50;5028520;28;20482;-36
2023/05/11 08:46:10;;;;;;;1.83;1.10;;;13.70;99.90;;;13.39;100.00;97062.81;5020653;28;20048;-36
2023/05/11 08:48:36;;;;;;;2.30;1.17;;;13.80;99.90;;;13.53;100.00;97062.94;5025193;28;20102;-36
2023/05/11 08:51:03;;;;;;;3.47;1.42;;;13.90;99.90;;;13.67;100.00;97064.81;5021622;28;20029;-36
2023/05/11 08:53:29;;;;;;;4.38;1.67;;;14.10;99.90;;;13.79;100.00;97057.16;5012437;28;20033;-36
2023/05/11 08:55:57;;;;;;;4.03;2.00;;;14.20;99.90;;;13.79;100.00;97062.44;5015442;28;20055;-36
2023/05/11 08:58:24;;;;;;;3.35;1.75;;;14.20;99.90;;;13.87;100.00;97061.09;5026015;28;20319;-36
2023/05/11 09:00:50;;;;;;;3.10;1.60;;;14.20;99.90;;;13.99;100.00;97063.97;5020861;28;20214;-36
2023/05/11 09:03:20;;;;;;;2.33;1.70;;;14.40;99.90;;;14.03;100.00;97054.91;5024535;28;20469;-36
2023/05/11 09:05:47;;;;;;;2.75;1.98;;;14.50;99.90;;;14.17;100.00;97062.94;5025618;28;20025;-36
2023/05/11 09:08:14;;;;;;;2.17;1.48;;;14.60;99.90;;;14.23;100.00;97056.44;5026252;28;20033;-36
2023/05/11 09:10:42;;;;;;;6.90;1.67;;;14.60;99.90;;;14.23;100.00;97062.59;5021316;28;20036;-36
2023/05/11 09:13:08;;;;;;;2.13;1.58;;;14.60;99.90;;;14.28;100.00;97057.03;5026489;28;20118;-36
2023/05/11 09:15:34;;;;;;;3.10;1.70;;;14.70;99.90;;;14.26;100.00;97065.06;5022804;28;20029;-36
2023/05/11 09:17:59;;;;;;;3.55;1.67;;;14.70;99.90;;;14.25;100.00;97066.03;5024169;28;20489;-36
2023/05/11 09:20:33;;;;;;;4.32;1.63;;;14.70;99.90;;;14.31;100.00;97055.03;5024294;28;21239;-36
2023/05/11 09:22:59;;;;;;;2.13;1.33;;;14.70;99.90;;;14.41;100.00;97059.81;5022716;28;20032;-36
2023/05/11 09:25:29;;;;;;;3.90;1.63;;;14.80;99.90;;;14.39;100.00;97059.94;5024976;28;20029;-36
2023/05/11 09:27:58;;;;;;;2.17;1.30;;;14.80;99.90;;;14.46;100.00;97057.75;5036894;28;20310;-36
2023/05/11 09:30:23;;;;;;;4.13;1.42;;;14.80;99.90;;;14.46;100.00;97060.41;5023577;28;20040;-36
2023/05/11 09:32:58;;;;;;;3.42;1.52;;;14.90;99.90;;;14.43;100.00;97069.41;5023275;28;20029;-36
2023/05/11 09:35:33;;;;;;;1.60;1.10;;;14.90;99.90;;;14.38;100.00;97058.22;5028593;28;20074;-36
2023/05/11 09:38:09;;;;;;;2.42;1.30;;;14.80;99.90;;;14.29;100.00;97056.94;5028656;28;21203;-36
2023/05/11 09:40:50;;;;;;;3.50;1.20;;;14.80;99.90;;;14.08;100.00;97035.13;5030874;28;20036;-36
2023/05/11 09:43:27;;;;;;;5.00;1.08;;;14.70;99.90;;;14.17;100.00;97056.78;5028758;28;20720;-37
2023/05/11 09:45:56;;;;;;;3.95;1.17;;;14.60;99.90;;;14.09;100.00;97063.38;5032697;28;20061;-36
2023/05/11 09:48:31;;;;;;;2.47;1.42;;;14.50;99.90;;;13.90;100.00;97065.34;5025655;28;20123;-37
2023/05/11 09:51:04;;;;;;;2.00;1.08;;;14.40;99.90;;;13.82;100.00;97063.13;5028894;28;20048;-37
2023/05/11 09:53:35;;;;;;;1.95;1.30;;;14.20;99.90;;;13.77;100.00;97059.03;5036780;28;20064;-36
2023/05/11 09:56:00;;;;;;;1.80;1.55;;;14.20;99.90;;;13.73;100.00;97055.69;5027699;28;20534;-36
2023/05/11 09:58:57;;;;;;;2.13;1.50;;;14.10;99.90;;;13.70;100.00;97053.19;5034798;28;20038;-36
2023/05/11 10:01:31;;;;;;;3.58;1.65;;;14.10;99.90;;;13.83;100.00;97054.22;5025978;28;20045;-36
2023/05/11 10:04:00;;;;;;;4.55;1.90;;;14.20;99.90;;;13.94;100.00;97058.94;5019323;28;20037;-36
2023/05/11 10:06:27;;;;;;;2.75;1.60;;;14.40;99.90;;;14.09;100.00;97054.56;5023412;28;20065;-36
2023/05/11 10:08:53;;;;;;;3.88;1.58;;;14.50;99.90;;;14.10;100.00;97045.66;5023427;28;20100;-36
2023/05/11 10:11:23;;;;;;;4.07;1.88;;;14.60;99.90;;;14.18;100.00;97055.84;5025937;28;20207;-36
2023/05/11 10:13:50;;;;;;;3.10;2.05;;;14.70;99.90;;;14.23;100.00;97053.78;5028637;28;20060;-36
2023/05/11 10:16:17;;;;;;;2.50;1.38;;;14.70;99.90;;;14.36;100.00;97057.44;5024167;28;20499;-36